Time;durP1;ratioP1;P1;durP2;ratioP2;P2;SDS_P1;SDS_P2;PMS_P1;PMS_P2;Temp;Humidity;BMP_temperature;BMP_pressure;BME280_temperature;BME280_humidity;BME280_pressure;Samples;Min_cycle;Max_cycle;Signal;HPM_P1;HPM_P2
2021/03/30 00:01:08;;;;;;;43.58;25.80;;;9.40;93.40;;;;;;5100292;28;20084;-69
2021/03/30 00:03:35;;;;;;;43.63;25.40;;;9.50;93.40;;;;;;5102529;28;20047;-74
2021/03/30 00:06:01;;;;;;;44.63;26.80;;;9.50;93.20;;;;;;5101098;28;20100;-73
2021/03/30 00:08:27;;;;;;;43.42;26.77;;;9.40;93.00;;;;;;5102326;28;20024;-69
2021/03/30 00:10:55;;;;;;;43.67;28.23;;;9.30;92.90;;;;;;5101558;28;20051;-75
2021/03/30 00:13:21;;;;;;;43.33;28.30;;;9.30;93.10;;;;;;5101780;28;20016;-78
2021/03/30 00:15:48;;;;;;;42.45;28.15;;;9.20;93.20;;;;;;5101399;28;20024;-73
2021/03/30 00:18:15;;;;;;;44.45;28.30;;;9.30;93.40;;;;;;5083994;28;20382;-77
2021/03/30 00:20:41;;;;;;;52.03;31.48;;;9.20;93.20;;;;;;5102389;28;20100;-70
2021/03/30 00:23:07;;;;;;;50.10;31.80;;;9.10;93.00;;;;;;5101712;28;20072;-76
2021/03/30 00:25:33;;;;;;;50.53;31.50;;;9.10;93.50;;;;;;5102085;28;20028;-70
2021/03/30 00:27:59;;;;;;;46.20;29.58;;;8.90;93.60;;;;;;5100915;28;20024;-76
2021/03/30 00:30:25;;;;;;;44.13;28.92;;;8.90;94.00;;;;;;5100735;28;20067;-70
2021/03/30 00:32:52;;;;;;;45.15;27.85;;;8.90;93.70;;;;;;5100817;28;20043;-74
2021/03/30 00:35:18;;;;;;;45.22;26.75;;;8.80;93.90;;;;;;5102266;28;20036;-75
2021/03/30 00:37:44;;;;;;;53.83;33.75;;;8.90;94.10;;;;;;5101778;28;20042;-77
2021/03/30 00:40:11;;;;;;;92.93;48.83;;;8.90;93.80;;;;;;5101751;28;20020;-70
2021/03/30 00:42:37;;;;;;;102.10;52.78;;;8.90;93.90;;;;;;5101280;28;20023;-76
2021/03/30 00:45:06;;;;;;;81.15;45.22;;;8.90;93.90;;;;;;5101782;28;20020;-76
2021/03/30 00:47:33;;;;;;;84.70;47.25;;;9.00;93.80;;;;;;5100461;28;20043;-71
2021/03/30 00:50:00;;;;;;;84.90;50.47;;;8.90;94.00;;;;;;5101184;28;20409;-76
2021/03/30 00:52:27;;;;;;;83.25;50.40;;;9.00;93.60;;;;;;5100578;28;20466;-71
2021/03/30 00:54:53;;;;;;;82.07;49.92;;;9.10;93.80;;;;;;5100520;28;20028;-70
2021/03/30 00:57:20;;;;;;;82.45;50.50;;;9.10;94.00;;;;;;5101716;28;20020;-72
2021/03/30 00:59:46;;;;;;;83.80;50.50;;;9.10;93.80;;;;;;5099945;28;20103;-74
2021/03/30 01:02:13;;;;;;;86.68;53.40;;;9.10;94.00;;;;;;5101082;28;20055;-76
2021/03/30 01:04:39;;;;;;;106.30;63.22;;;9.10;94.00;;;;;;5100811;28;20024;-74
2021/03/30 01:07:07;;;;;;;107.00;62.40;;;9.10;93.90;;;;;;5100315;28;20016;-70
2021/03/30 01:10:02;;;;;;;94.00;53.00;;;9.00;93.70;;;;;;5101914;28;20064;-74
2021/03/30 01:13:05;;;;;;;71.50;41.10;;;8.90;93.80;;;;;;5101711;28;20020;-72
2021/03/30 01:15:37;;;;;;;61.45;37.10;;;8.80;94.10;;;;;;5100594;28;20027;-72
2021/03/30 01:18:27;;;;;;;68.80;40.00;;;8.60;94.30;;;;;;5101388;28;20465;-72
2021/03/30 01:21:17;;;;;;;57.38;35.15;;;8.50;94.40;;;;;;5083289;28;20059;-75
2021/03/30 01:24:09;;;;;;;54.90;33.33;;;8.40;94.40;;;;;;5083522;28;20016;-76
2021/03/30 01:26:44;;;;;;;55.85;31.48;;;8.30;95.10;;;;;;5083624;28;20012;-69
2021/03/30 01:29:39;;;;;;;47.95;31.38;;;8.10;95.70;;;;;;5100930;28;20021;-71
2021/03/30 01:32:20;;;;;;;55.25;33.83;;;7.90;96.10;;;;;;5102561;28;20016;-69
2021/03/30 01:34:48;;;;;;;55.03;32.72;;;7.80;96.20;;;;;;5100617;28;20093;-70
2021/03/30 01:37:16;;;;;;;56.17;33.88;;;7.80;96.30;;;;;;5099690;28;20074;-73
2021/03/30 01:39:45;;;;;;;58.88;36.90;;;7.70;96.30;;;;;;5083366;28;20024;-73
2021/03/30 01:42:12;;;;;;;55.78;33.63;;;7.60;96.80;;;;;;5100158;28;20374;-69
2021/03/30 01:44:40;;;;;;;66.82;37.90;;;7.80;96.40;;;;;;5100939;28;20103;-76
2021/03/30 01:47:06;;;;;;;64.15;36.95;;;7.60;96.60;;;;;;5098894;28;20024;-74
2021/03/30 01:49:35;;;;;;;58.70;35.92;;;7.50;96.70;;;;;;5100776;28;20103;-70
2021/03/30 01:52:01;;;;;;;65.53;35.85;;;7.50;96.50;;;;;;5098879;28;20016;-73
2021/03/30 01:54:28;;;;;;;61.88;36.55;;;7.50;96.60;;;;;;5083194;28;20024;-75
2021/03/30 01:56:56;;;;;;;61.97;36.22;;;7.50;96.60;;;;;;5100272;28;20024;-71
2021/03/30 01:59:24;;;;;;;66.95;38.65;;;7.60;96.40;;;;;;5085151;28;20508;-75
2021/03/30 02:01:51;;;;;;;62.92;39.10;;;7.60;96.40;;;;;;5104599;28;20395;-77
2021/03/30 02:04:20;;;;;;;65.25;38.05;;;7.60;96.30;;;;;;5088017;28;20020;-75
2021/03/30 02:06:48;;;;;;;69.78;40.15;;;7.70;96.40;;;;;;5105247;28;20020;-70
2021/03/30 02:09:23;;;;;;;65.90;39.17;;;7.70;96.20;;;;;;5104449;28;20027;-76
2021/03/30 02:14:17;;;;;;;70.55;38.22;;;7.80;96.20;;;;;;5104965;28;20024;-70
2021/03/30 02:17:04;;;;;;;64.57;38.30;;;7.80;96.00;;;;;;5104815;28;20043;-73
2021/03/30 02:19:45;;;;;;;65.47;39.03;;;7.80;96.30;;;;;;5103421;28;20115;-71
2021/03/30 02:22:32;;;;;;;62.25;35.95;;;7.70;96.30;;;;;;5105204;28;20099;-70
2021/03/30 02:25:00;;;;;;;56.60;36.00;;;7.80;96.30;;;;;;5104279;28;20027;-73
2021/03/30 02:27:28;;;;;;;67.60;40.13;;;7.70;96.30;;;;;;5104302;28;20020;-70
2021/03/30 02:29:56;;;;;;;59.25;36.50;;;7.70;96.30;;;;;;5104645;28;20016;-70
2021/03/30 02:32:24;;;;;;;59.95;35.50;;;7.70;96.30;;;;;;5104551;28;20059;-75
2021/03/30 02:34:54;;;;;;;54.70;32.75;;;7.60;96.50;;;;;;5104266;28;20021;-76
2021/03/30 02:37:20;;;;;;;52.22;31.35;;;7.50;96.60;;;;;;5103520;28;20032;-69
2021/03/30 02:39:48;;;;;;;50.35;29.15;;;7.60;96.60;;;;;;5101989;28;20024;-69
2021/03/30 02:42:16;;;;;;;47.67;28.73;;;7.50;96.60;;;;;;5102508;28;20058;-69
2021/03/30 02:44:45;;;;;;;42.20;25.65;;;7.40;96.70;;;;;;5102239;28;20031;-77
2021/03/30 02:47:14;;;;;;;39.92;26.13;;;7.40;96.80;;;;;;5103731;28;20020;-70
2021/03/30 02:49:42;;;;;;;36.03;23.02;;;7.50;96.80;;;;;;5103087;28;20558;-79
2021/03/30 02:52:09;;;;;;;35.63;22.20;;;7.30;96.90;;;;;;5102966;28;20004;-70
2021/03/30 02:54:36;;;;;;;36.22;21.58;;;;;;;;;;5103416;28;20027;-73
2021/03/30 02:57:02;;;;;;;34.25;21.85;;;7.20;97.00;;;;;;5104191;28;20040;-71
2021/03/30 02:59:30;;;;;;;31.45;20.30;;;7.20;97.00;;;;;;5103218;28;20024;-76
2021/03/30 03:01:57;;;;;;;35.83;20.65;;;7.30;97.00;;;;;;5103343;28;20048;-73
2021/03/30 03:04:25;;;;;;;31.35;19.02;;;7.30;96.90;;;;;;5103926;28;20161;-68
2021/03/30 03:06:51;;;;;;;33.08;19.13;;;7.30;97.10;;;;;;5103201;28;20012;-69
2021/03/30 03:09:18;;;;;;;36.33;20.88;;;7.20;97.30;;;;;;5103727;28;20024;-71
2021/03/30 03:11:47;;;;;;;39.45;22.65;;;7.30;97.20;;;;;;5083772;28;20020;-74
2021/03/30 03:14:16;;;;;;;37.20;22.40;;;7.30;97.40;;;;;;5086427;28;20496;-78
2021/03/30 03:16:43;;;;;;;40.05;24.48;;;7.40;97.10;;;;;;5106133;28;20042;-69
2021/03/30 03:19:10;;;;;;;44.13;25.55;;;7.30;97.20;;;;;;5106246;28;19996;-70
2021/03/30 03:21:37;;;;;;;44.08;26.13;;;7.40;97.00;;;;;;5088976;28;20008;-77
2021/03/30 03:24:05;;;;;;;45.55;26.17;;;7.40;96.90;;;;;;5100473;28;20596;-75
2021/03/30 03:26:35;;;;;;;49.47;26.25;;;7.40;97.00;;;;;;5105343;28;20024;-69
2021/03/30 03:29:01;;;;;;;44.17;22.67;;;7.40;97.00;;;;;;5087180;28;20032;-76
2021/03/30 03:31:30;;;;;;;38.70;21.85;;;7.40;96.90;;;;;;5105980;28;20401;-75
2021/03/30 03:34:05;;;;;;;38.83;22.65;;;7.40;96.90;;;;;;5104101;28;20000;-69
2021/03/30 03:36:49;;;;;;;48.70;27.65;;;7.40;96.90;;;;;;5106415;28;20005;-72
2021/03/30 03:39:20;;;;;;;37.70;23.38;;;7.40;97.00;;;;;;5088044;28;20542;-71
2021/03/30 03:41:46;;;;;;;36.05;21.50;;;7.40;96.80;;;;;;5106393;28;20006;-73
2021/03/30 03:44:13;;;;;;;34.05;19.70;;;7.50;96.80;;;;;;5104746;28;20394;-71
2021/03/30 03:46:40;;;;;;;26.80;16.95;;;7.50;96.90;;;;;;5086184;28;20363;-78
2021/03/30 03:49:07;;;;;;;25.30;15.40;;;7.50;96.80;;;;;;5106390;28;20076;-74
2021/03/30 03:51:41;;;;;;;25.73;17.48;;;7.40;97.00;;;;;;5104836;28;20021;-70
2021/03/30 03:54:10;;;;;;;30.10;18.02;;;7.30;97.20;;;;;;5105507;28;20150;-73
2021/03/30 03:56:42;;;;;;;36.92;21.67;;;7.40;97.40;;;;;;5106983;28;20024;-74
2021/03/30 03:59:15;;;;;;;34.25;21.15;;;7.40;97.50;;;;;;5105487;28;20012;-71
2021/03/30 04:02:02;;;;;;;41.20;24.52;;;7.40;97.50;;;;;;5103498;28;20040;-72
2021/03/30 04:04:52;;;;;;;66.05;39.47;;;7.50;97.30;;;;;;5065889;28;20387;-73
2021/03/30 04:07:33;;;;;;;98.45;50.67;;;7.40;97.40;;;;;;5065766;28;20025;-70
2021/03/30 04:10:01;;;;;;;71.72;40.45;;;7.40;97.20;;;;;;5064863;28;20047;-74
2021/03/30 04:12:29;;;;;;;64.22;37.17;;;7.40;97.40;;;;;;5065582;28;20103;-78
2021/03/30 04:14:57;;;;;;;61.25;35.88;;;7.40;97.60;;;;;;5061805;28;20029;-78
2021/03/30 04:17:24;;;;;;;40.63;24.80;;;7.30;97.70;;;;;;5065328;28;20032;-73
2021/03/30 04:19:50;;;;;;;38.97;23.65;;;7.30;98.00;;;;;;5063028;28;20005;-77
2021/03/30 04:22:16;;;;;;;40.72;23.25;;;7.30;97.90;;;;;;5063983;28;20039;-72
2021/03/30 04:24:45;;;;;;;33.67;21.52;;;7.30;98.10;;;;;;5065188;28;20052;-70
2021/03/30 04:27:12;;;;;;;39.88;22.17;;;7.30;98.30;;;;;;5062321;28;20025;-76
2021/03/30 04:29:43;;;;;;;41.42;23.27;;;7.20;98.70;;;;;;5061307;28;20044;-78
2021/03/30 04:32:09;;;;;;;40.17;21.92;;;7.20;98.60;;;;;;5064242;28;20032;-76
2021/03/30 04:34:36;;;;;;;40.15;21.75;;;7.20;98.60;;;;;;5063854;28;20039;-76
2021/03/30 04:37:02;;;;;;;35.75;20.85;;;7.10;98.60;;;;;;5064067;28;20104;-73
2021/03/30 04:39:28;;;;;;;27.73;18.00;;;7.20;98.70;;;;;;5062165;28;20023;-76
2021/03/30 04:41:54;;;;;;;27.70;17.63;;;7.30;98.20;;;;;;5065116;28;20452;-77
2021/03/30 04:44:20;;;;;;;24.52;14.02;;;7.30;98.40;;;;;;5064371;28;20040;-72
2021/03/30 04:46:46;;;;;;;24.88;15.77;;;7.20;98.20;;;;;;5064615;28;20089;-73
2021/03/30 04:49:12;;;;;;;23.88;14.68;;;7.10;98.50;;;;;;5065665;28;20486;-69
2021/03/30 04:51:38;;;;;;;30.95;17.27;;;7.00;98.70;;;;;;5064736;28;20243;-74
2021/03/30 04:54:04;;;;;;;41.50;26.05;;;6.80;99.20;;;;;;5063866;28;20076;-74
2021/03/30 04:56:30;;;;;;;123.47;92.18;;;7.00;99.10;;;;;;5061735;28;20021;-74
2021/03/30 04:58:56;;;;;;;212.73;167.52;;;7.20;98.90;;;;;;5062785;28;20005;-69
2021/03/30 05:01:21;;;;;;;133.20;99.97;;;7.20;98.90;;;;;;5062841;28;20033;-77
2021/03/30 05:03:47;;;;;;;67.07;46.22;;;7.30;98.50;;;;;;5098327;28;20036;-72
2021/03/30 05:06:13;;;;;;;51.03;34.92;;;7.40;98.40;;;;;;5103695;28;20031;-68
2021/03/30 05:08:39;;;;;;;43.75;27.88;;;7.40;98.40;;;;;;5104745;28;20016;-73
2021/03/30 05:11:05;;;;;;;35.70;21.73;;;7.30;98.70;;;;;;5102476;28;20015;-78
2021/03/30 05:13:31;;;;;;;34.50;21.58;;;7.40;98.30;;;;;;5103864;28;20033;-73
2021/03/30 05:15:58;;;;;;;35.20;21.88;;;7.40;98.50;;;;;;5100462;28;20020;-79
2021/03/30 05:18:23;;;;;;;50.83;25.17;;;7.50;98.70;;;;;;5081509;28;20031;-69
2021/03/30 05:20:49;;;;;;;51.33;27.65;;;7.50;98.70;;;;;;5102628;28;20024;-77
2021/03/30 05:23:15;;;;;;;46.30;25.77;;;7.60;98.70;;;;;;5103826;28;20032;-71
2021/03/30 05:25:41;;;;;;;49.55;29.08;;;7.70;98.40;;;;;;5103600;28;20005;-72
2021/03/30 05:28:07;;;;;;;45.72;26.83;;;7.70;98.40;;;;;;5102833;28;20095;-74
2021/03/30 05:30:33;;;;;;;45.30;25.77;;;7.90;98.10;;;;;;5103723;28;20095;-69
2021/03/30 05:32:59;;;;;;;45.70;25.42;;;7.90;98.10;;;;;;5084786;28;20554;-78
2021/03/30 05:35:26;;;;;;;42.72;24.38;;;7.90;98.20;;;;;;5106004;28;20024;-70
2021/03/30 05:37:52;;;;;;;46.42;25.42;;;8.20;98.30;;;;;;5105579;28;20028;-81
2021/03/30 05:40:20;;;;;;;46.00;26.33;;;8.30;98.20;;;;;;5105040;28;20024;-73
2021/03/30 05:42:46;;;;;;;50.38;27.08;;;8.20;97.90;;;;;;5101631;28;20019;-78
2021/03/30 05:45:14;;;;;;;41.60;25.77;;;8.40;97.70;;;;;;5102505;28;20020;-78
2021/03/30 05:47:41;;;;;;;44.33;26.20;;;8.50;97.80;;;;;;5106304;28;20101;-78
2021/03/30 05:50:13;;;;;;;49.17;26.98;;;8.50;97.70;;;;;;5104665;28;20049;-69
2021/03/30 05:52:46;;;;;;;50.20;27.08;;;8.60;97.60;;;;;;5105166;28;20016;-78
2021/03/30 05:55:29;;;;;;;68.13;34.92;;;8.70;97.10;;;;;;5087615;28;20497;-79
2021/03/30 05:57:59;;;;;;;73.78;40.47;;;8.80;97.40;;;;;;5101572;28;20377;-79
2021/03/30 06:00:30;;;;;;;73.38;41.25;;;8.80;97.20;;;;;;5087679;28;20525;-69
2021/03/30 06:02:59;;;;;;;61.63;37.83;;;8.90;97.30;;;;;;5104063;28;20482;-77
2021/03/30 06:05:26;;;;;;;66.00;39.80;;;9.00;97.10;;;;;;5106462;28;20013;-80
2021/03/30 06:07:54;;;;;;;59.22;37.47;;;9.10;96.80;;;;;;5104625;28;20020;-76
2021/03/30 06:10:25;;;;;;;70.35;42.55;;;9.30;96.40;;;;;;5106333;28;20020;-76
2021/03/30 06:12:51;;;;;;;74.97;44.80;;;9.60;96.40;;;;;;5109385;28;20509;-70
2021/03/30 06:15:17;;;;;;;69.53;44.42;;;9.60;94.90;;;;;;5108104;28;20023;-73
2021/03/30 06:17:48;;;;;;;90.10;55.10;;;9.70;94.90;;;;;;5088337;28;20051;-69
2021/03/30 06:20:33;;;;;;;147.63;82.45;;;9.90;95.00;;;;;;5108706;28;20023;-76
2021/03/30 06:23:02;;;;;;;;;;;9.90;94.20;;;;;;5108213;28;20228;-72
2021/03/30 06:25:49;;;;;;;52.15;31.67;;;10.10;94.10;;;;;;5107685;28;19904;-80
2021/03/30 06:28:30;;;;;;;46.90;29.45;;;10.10;94.50;;;;;;5087409;28;20071;-81
2021/03/30 06:31:06;;;;;;;46.88;30.80;;;10.10;93.90;;;;;;5087571;28;20031;-77
2021/03/30 06:33:34;;;;;;;52.63;30.70;;;10.20;93.60;;;;;;5106932;28;20024;-72
2021/03/30 06:36:32;;;;;;;55.90;32.72;;;10.30;93.40;;;;;;5107076;28;20040;-76
2021/03/30 06:39:01;;;;;;;50.55;30.55;;;10.30;93.40;;;;;;5109514;28;20059;-80
2021/03/30 06:41:49;;;;;;;47.55;30.73;;;10.40;94.10;;;;;;5106342;28;20030;-73
2021/03/30 06:44:28;;;;;;;45.17;28.67;;;10.60;93.50;;;;;;5106251;28;20012;-76
2021/03/30 06:46:54;;;;;;;45.67;29.48;;;10.50;93.50;;;;;;5105323;28;20115;-77
2021/03/30 06:49:22;;;;;;;45.75;29.90;;;10.60;94.00;;;;;;5107467;28;20025;-69
2021/03/30 06:51:48;;;;;;;47.03;28.73;;;10.70;95.00;;;;;;5088260;28;20077;-80
2021/03/30 06:54:15;;;;;;;37.90;24.48;;;10.80;94.00;;;;;;5086564;28;20025;-75
2021/03/30 06:56:51;;;;;;;32.97;22.90;;;10.90;93.10;;;;;;5102227;28;20053;-69
2021/03/30 06:59:17;;;;;;;34.53;22.65;;;11.00;92.90;;;;;;5087931;28;20004;-78
2021/03/30 07:01:46;;;;;;;36.40;22.67;;;11.10;93.50;;;;;;5104285;28;20012;-69
2021/03/30 07:04:13;;;;;;;32.90;22.45;;;11.20;92.50;;;;;;5102237;28;20032;-70
2021/03/30 07:06:40;;;;;;;34.67;23.23;;;11.20;93.00;;;;;;5101325;28;20374;-78
2021/03/30 07:09:09;;;;;;;38.50;25.40;;;11.20;92.60;;;;;;5100013;28;20031;-71
2021/03/30 07:11:39;;;;;;;40.05;26.02;;;11.10;93.90;;;;;;5095053;28;20028;-69
2021/03/30 07:14:05;;;;;;;53.58;37.92;;;11.10;93.10;;;;;;5085390;28;20051;-69
2021/03/30 07:16:43;;;;;;;69.03;42.03;;;11.00;93.10;;;;;;5095171;28;20020;-68
2021/03/30 07:19:10;;;;;;;43.63;28.52;;;11.10;94.10;;;;;;5094796;28;20073;-69
2021/03/30 07:22:06;;;;;;;42.03;27.83;;;11.20;92.50;;;;;;5095482;28;20048;-72
2021/03/30 07:24:48;;;;;;;33.75;22.13;;;11.20;92.70;;;;;;5073946;28;20129;-69
2021/03/30 07:27:19;;;;;;;37.40;24.67;;;11.30;92.40;;;;;;5094926;28;20047;-69
2021/03/30 07:29:49;;;;;;;44.90;28.10;;;11.30;93.40;;;;;;5094820;28;20086;-74
2021/03/30 07:32:24;;;;;;;56.80;34.40;;;11.40;92.90;;;;;;5092487;28;20024;-69
2021/03/30 07:35:06;;;;;;;64.00;48.28;;;11.60;94.80;;;;;;5095552;28;20046;-70
2021/03/30 07:37:56;;;;;;;73.70;49.05;;;11.60;93.10;;;;;;5094992;28;20039;-68
2021/03/30 07:40:23;;;;;;;88.47;56.38;;;11.80;93.90;;;;;;5095141;28;20028;-71
2021/03/30 07:42:51;;;;;;;54.40;35.63;;;11.90;94.00;;;;;;5096642;28;20069;-68
2021/03/30 07:45:22;;;;;;;53.83;32.40;;;11.90;92.80;;;;;;5104986;28;20466;-75
2021/03/30 07:47:50;;;;;;;46.00;23.85;;;12.10;92.90;;;;;;5106321;28;20083;-70
2021/03/30 07:50:20;;;;;;;36.42;20.88;;;12.10;92.50;;;;;;5105192;28;20088;-74
2021/03/30 07:52:49;;;;;;;37.33;22.45;;;12.20;92.00;;;;;;5105775;28;20458;-72
2021/03/30 07:55:24;;;;;;;24.58;14.30;;;12.30;92.10;;;;;;5105206;28;20519;-76
2021/03/30 07:58:03;;;;;;;;;;;12.50;91.20;;;;;;5104925;28;20020;-73
2021/03/30 08:00:32;;;;;;;51.05;31.08;;;12.50;91.10;;;;;;5106311;28;19903;-74
2021/03/30 08:03:08;;;;;;;37.40;21.80;;;12.70;91.70;;;;;;5103815;28;20062;-75
2021/03/30 08:05:34;;;;;;;17.98;10.23;;;12.90;91.80;;;;;;5107131;28;20016;-69
2021/03/30 08:08:02;;;;;;;23.63;15.30;;;12.90;88.10;;;;;;5106230;28;20034;-76
2021/03/30 08:10:30;;;;;;;32.65;17.48;;;13.10;89.60;;;;;;5087344;28;20084;-73
2021/03/30 08:13:26;;;;;;;29.05;16.92;;;13.10;88.80;;;;;;5104451;28;20340;-75
2021/03/30 08:16:14;;;;;;;32.45;17.17;;;13.10;88.50;;;;;;5079773;28;20105;-69
2021/03/30 08:18:42;;;;;;;40.33;18.80;;;13.20;88.50;;;;;;5086965;28;20469;-70
2021/03/30 08:21:14;;;;;;;38.83;17.60;;;13.10;87.20;;;;;;5103741;28;20115;-69
2021/03/30 08:23:52;;;;;;;129.38;73.22;;;13.10;86.90;;;;;;5102974;28;20035;-79
2021/03/30 08:26:30;;;;;;;72.13;45.47;;;13.00;85.10;;;;;;5104575;28;20073;-69
2021/03/30 08:29:10;;;;;;;60.97;39.90;;;13.00;85.70;;;;;;5104964;28;20024;-79
2021/03/30 08:32:05;;;;;;;82.63;41.58;;;13.10;86.70;;;;;;5107820;28;20028;-79
2021/03/30 08:34:43;;;;;;;80.70;39.92;;;13.00;83.40;;;;;;5086630;28;20044;-80
2021/03/30 08:37:13;;;;;;;88.90;47.55;;;12.90;84.60;;;;;;5107370;28;20013;-79
2021/03/30 08:39:40;;;;;;;54.08;29.33;;;12.90;84.10;;;;;;5089552;28;20045;-70
2021/03/30 08:42:20;;;;;;;50.38;27.48;;;12.90;84.80;;;;;;5103985;28;20059;-78
2021/03/30 08:44:55;;;;;;;66.70;37.60;;;13.00;84.90;;;;;;5108461;28;20071;-79
2021/03/30 08:47:38;;;;;;;45.17;24.27;;;12.90;82.30;;;;;;5102586;28;20186;-80
2021/03/30 08:50:14;;;;;;;65.13;33.55;;;13.00;85.20;;;;;;5102791;28;20027;-79
2021/03/30 08:52:40;;;;;;;63.88;34.50;;;12.90;84.60;;;;;;5104466;28;20016;-80
2021/03/30 08:55:08;;;;;;;64.25;34.10;;;12.90;85.40;;;;;;5106964;28;20033;-79
2021/03/30 08:57:37;;;;;;;63.17;32.10;;;12.90;86.30;;;;;;5103882;28;20024;-77
2021/03/30 09:00:14;;;;;;;49.65;27.13;;;12.90;85.50;;;;;;5104679;28;20035;-70
2021/03/30 09:02:40;;;;;;;30.52;17.60;;;12.90;87.20;;;;;;5102363;28;20052;-80
2021/03/30 09:05:19;;;;;;;39.90;22.67;;;12.90;85.60;;;;;;5103492;28;20048;-79
2021/03/30 09:07:47;;;;;;;33.15;19.23;;;12.80;85.70;;;;;;5106906;28;20051;-79
2021/03/30 09:10:15;;;;;;;35.40;22.88;;;12.80;85.60;;;;;;5104388;28;20087;-80
2021/03/30 09:12:43;;;;;;;34.17;20.70;;;12.70;87.40;;;;;;5102747;28;20200;-79
2021/03/30 09:15:11;;;;;;;52.78;29.48;;;12.70;87.60;;;;;;5101337;28;20013;-80
2021/03/30 09:17:57;;;;;;;60.30;33.10;;;12.70;89.10;;;;;;5100609;28;20379;-80
2021/03/30 09:20:26;;;;;;;65.05;34.60;;;12.70;88.50;;;;;;5100550;28;20097;-69
2021/03/30 09:22:54;;;;;;;73.15;35.80;;;12.80;89.10;;;;;;5100359;28;20501;-74
2021/03/30 09:25:29;;;;;;;48.88;25.77;;;12.80;90.10;;;;;;5104869;28;20032;-80
2021/03/30 09:27:55;;;;;;;32.53;18.98;;;12.80;89.00;;;;;;5106145;28;20012;-79
2021/03/30 09:30:23;;;;;;;60.83;34.75;;;12.90;90.50;;;;;;5099916;28;20047;-80
2021/03/30 09:32:52;;;;;;;36.08;20.20;;;13.00;90.30;;;;;;5101564;28;20008;-80
2021/03/30 09:35:23;;;;;;;34.30;21.42;;;13.10;88.50;;;;;;5104838;28;20069;-76
2021/03/30 09:37:49;;;;;;;27.58;17.83;;;13.10;90.30;;;;;;5106538;28;20008;-69
2021/03/30 09:40:22;;;;;;;28.50;17.05;;;13.10;88.30;;;;;;5097258;28;20026;-79
2021/03/30 09:42:49;;;;;;;29.42;18.85;;;13.20;88.90;;;;;;5101988;28;20012;-79
2021/03/30 09:45:21;;;;;;;29.70;19.77;;;13.20;88.20;;;;;;5101720;28;20031;-78
2021/03/30 09:47:48;;;;;;;31.75;19.45;;;13.20;88.60;;;;;;5103768;28;20047;-79
2021/03/30 09:50:18;;;;;;;54.22;32.20;;;13.30;88.40;;;;;;5100801;28;20020;-79
2021/03/30 09:52:44;;;;;;;42.65;28.02;;;13.40;87.40;;;;;;5103645;28;20157;-76
2021/03/30 09:55:10;;;;;;;26.88;14.85;;;13.50;89.30;;;;;;5102899;28;20048;-76
2021/03/30 09:57:36;;;;;;;34.60;20.20;;;13.40;89.30;;;;;;5103338;28;20008;-82
2021/03/30 10:00:06;;;;;;;35.35;21.55;;;13.40;87.90;;;;;;5101385;28;20025;-74
2021/03/30 10:02:37;;;;;;;52.45;27.60;;;13.40;85.30;;;;;;5099834;28;20040;-70
2021/03/30 10:05:07;;;;;;;72.43;40.10;;;13.40;85.60;;;;;;5101633;28;20032;-76
2021/03/30 10:07:40;;;;;;;30.38;18.45;;;13.30;86.40;;;;;;5103750;28;20024;-78
2021/03/30 10:10:13;;;;;;;40.15;23.98;;;13.30;86.20;;;;;;5107064;28;20027;-76
2021/03/30 10:13:04;;;;;;;27.85;17.40;;;13.30;86.80;;;;;;5100565;28;20024;-79
2021/03/30 10:15:33;;;;;;;32.92;18.83;;;13.20;87.40;;;;;;5104288;28;20023;-78
2021/03/30 10:18:01;;;;;;;30.42;20.83;;;13.20;88.10;;;;;;5102993;28;20107;-79
2021/03/30 10:20:27;;;;;;;38.92;22.45;;;13.20;89.70;;;;;;5104652;28;20066;-79
2021/03/30 10:22:53;;;;;;;33.92;22.05;;;13.20;88.90;;;;;;5103294;28;20016;-69
2021/03/30 10:25:21;;;;;;;55.00;34.22;;;13.30;90.60;;;;;;5088748;28;20060;-79
2021/03/30 10:27:57;;;;;;;29.77;16.20;;;13.30;90.40;;;;;;5106576;28;20032;-78
2021/03/30 10:30:46;;;;;;;31.10;17.70;;;13.30;89.70;;;;;;5106200;28;20024;-78
2021/03/30 10:33:15;;;;;;;48.88;29.60;;;13.30;90.40;;;;;;5108490;28;20123;-79
2021/03/30 10:35:42;;;;;;;30.20;18.35;;;13.40;90.10;;;;;;5104880;28;20020;-78
2021/03/30 10:38:08;;;;;;;30.75;19.70;;;13.50;90.10;;;;;;5107310;28;20020;-79
2021/03/30 10:40:39;;;;;;;31.15;20.92;;;13.70;90.50;;;;;;5110008;28;20104;-79
2021/03/30 10:43:23;;;;;;;36.42;24.80;;;13.70;89.10;;;;;;5106715;28;20102;-79
2021/03/30 10:45:50;;;;;;;27.90;17.05;;;13.80;89.20;;;;;;5107495;28;20000;-79
2021/03/30 10:48:16;;;;;;;26.92;17.88;;;13.90;89.10;;;;;;5109762;28;20080;-73
2021/03/30 10:50:43;;;;;;;34.28;21.75;;;13.90;87.80;;;;;;5104350;28;20066;-75
2021/03/30 10:53:10;;;;;;;32.97;20.63;;;13.90;88.20;;;;;;5103300;28;20008;-78
2021/03/30 10:55:37;;;;;;;36.53;20.98;;;13.90;88.80;;;;;;5102270;28;20023;-78
2021/03/30 10:58:11;;;;;;;38.92;21.40;;;14.00;88.90;;;;;;5108066;28;20030;-69
2021/03/30 11:00:37;;;;;;;30.33;18.43;;;14.00;89.50;;;;;;5102718;28;20042;-78
2021/03/30 11:03:05;;;;;;;34.78;20.77;;;13.90;87.80;;;;;;5103964;28;20059;-69
2021/03/30 11:05:31;;;;;;;52.00;29.20;;;14.00;88.80;;;;;;5108770;28;20030;-79
2021/03/30 11:07:57;;;;;;;42.95;24.60;;;14.00;88.00;;;;;;5108906;28;20024;-79
2021/03/30 11:10:24;;;;;;;33.08;20.50;;;14.10;88.50;;;;;;5106341;28;20016;-69
2021/03/30 11:12:50;;;;;;;56.85;30.50;;;14.20;89.80;;;;;;5106172;28;20374;-79
2021/03/30 11:15:16;;;;;;;42.63;25.45;;;14.20;89.50;;;;;;5109610;28;20004;-76
2021/03/30 11:17:42;;;;;;;33.85;21.85;;;14.20;89.40;;;;;;5109724;28;20355;-78
2021/03/30 11:20:12;;;;;;;45.60;28.27;;;14.30;88.80;;;;;;5110515;28;20027;-78
2021/03/30 11:22:42;;;;;;;38.33;24.90;;;14.40;90.00;;;;;;5107200;28;20004;-77
2021/03/30 11:25:10;;;;;;;36.67;22.50;;;14.40;89.20;;;;;;5110224;28;20115;-78
2021/03/30 11:27:38;;;;;;;37.47;22.33;;;14.50;88.50;;;;;;5092007;28;20158;-78
2021/03/30 11:30:16;;;;;;;32.78;21.33;;;14.70;90.30;;;;;;5109505;28;20020;-68
2021/03/30 11:32:49;;;;;;;34.63;22.00;;;14.80;89.40;;;;;;5108237;28;20035;-73
2021/03/30 11:40:17;;;;;;;28.98;19.73;;;15.20;84.90;;;;;;5109386;28;20020;-79
2021/03/30 11:42:43;;;;;;;29.88;20.45;;;15.50;86.60;;;;;;5110101;28;20358;-77
2021/03/30 11:45:10;;;;;;;23.73;14.70;;;15.70;86.70;;;;;;5105764;28;20025;-69
2021/03/30 11:47:36;;;;;;;35.58;20.45;;;15.90;80.60;;;;;;5103378;28;20030;-69
2021/03/30 11:50:05;;;;;;;29.15;16.70;;;16.20;80.30;;;;;;5102656;28;20103;-72
2021/03/30 11:52:32;;;;;;;23.45;13.75;;;16.60;81.00;;;;;;5103970;28;20422;-70
2021/03/30 11:54:57;;;;;;;19.95;12.05;;;16.80;78.10;;;;;;5101870;28;20024;-69
2021/03/30 11:57:24;;;;;;;15.43;9.27;;;16.90;75.80;;;;;;5099907;28;20019;-70
2021/03/30 11:59:50;;;;;;;17.20;9.30;;;17.30;72.60;;;;;;5100677;28;20024;-68
2021/03/30 12:02:16;;;;;;;17.67;10.40;;;17.40;72.90;;;;;;5098837;28;20043;-69
2021/03/30 12:04:42;;;;;;;19.27;11.77;;;17.60;72.30;;;;;;5102300;28;20125;-69
2021/03/30 12:07:08;;;;;;;20.58;14.18;;;17.70;74.40;;;;;;5101587;28;20462;-69
2021/03/30 12:09:34;;;;;;;23.60;15.60;;;17.70;73.30;;;;;;5084584;28;20082;-77
2021/03/30 12:12:00;;;;;;;19.90;13.32;;;17.80;70.70;;;;;;5085008;28;20040;-78
2021/03/30 12:14:26;;;;;;;17.00;11.63;;;17.60;69.40;;;;;;5103220;28;20457;-69
2021/03/30 12:16:51;;;;;;;22.38;14.35;;;17.80;69.80;;;;;;5100691;28;20025;-70
2021/03/30 12:19:18;;;;;;;17.90;11.68;;;18.00;68.90;;;;;;5083314;28;20058;-75
2021/03/30 12:21:45;;;;;;;31.13;18.85;;;18.10;67.60;;;;;;5082571;28;20024;-71
2021/03/30 12:24:12;;;;;;;18.95;12.50;;;18.00;67.20;;;;;;5102233;28;20016;-71
2021/03/30 12:26:38;;;;;;;14.00;9.70;;;18.30;68.00;;;;;;5102796;28;20412;-70
2021/03/30 12:29:04;;;;;;;15.00;9.32;;;18.20;66.90;;;;;;5101337;28;20020;-71
2021/03/30 12:31:31;;;;;;;21.15;10.50;;;18.10;66.70;;;;;;5102080;28;20004;-67
2021/03/30 12:33:58;;;;;;;19.80;10.15;;;18.50;64.80;;;;;;5082230;28;20032;-76
2021/03/30 12:36:24;;;;;;;15.73;10.07;;;18.20;67.10;;;;;;5101394;28;20016;-72
2021/03/30 12:38:50;;;;;;;38.70;28.10;;;18.30;64.70;;;;;;5102130;28;20063;-70
2021/03/30 12:41:16;;;;;;;18.15;12.15;;;18.00;65.10;;;;;;5102930;28;20005;-76
2021/03/30 12:43:43;;;;;;;82.22;43.47;;;18.00;63.70;;;;;;5100991;28;20027;-71
2021/03/30 12:46:10;;;;;;;28.92;16.20;;;17.90;65.60;;;;;;5102184;28;20084;-69
2021/03/30 12:48:37;;;;;;;20.38;13.55;;;17.80;66.50;;;;;;5101128;28;20016;-78
2021/03/30 12:51:03;;;;;;;15.50;8.32;;;17.50;67.50;;;;;;5083323;28;20426;-70
2021/03/30 12:53:29;;;;;;;13.23;9.02;;;17.40;66.00;;;;;;5101648;28;20011;-71
2021/03/30 12:55:55;;;;;;;16.15;10.32;;;17.40;64.20;;;;;;5102001;28;20025;-78